createdAt,value
2023-03-18T00:00:01.407Z,0
2023-03-18T00:00:41.916Z,0
2023-03-18T00:01:23.248Z,0
2023-03-18T00:03:51.845Z,0
2023-03-18T00:04:32.345Z,0
2023-03-18T00:05:12.886Z,0
2023-03-18T00:05:54.265Z,0
2023-03-18T00:07:53.703Z,0
2023-03-18T00:08:34.964Z,0
2023-03-18T00:09:15.499Z,0
2023-03-18T00:09:56.004Z,0
2023-03-18T00:10:36.569Z,0
2023-03-18T00:11:17.052Z,0
2023-03-18T00:11:57.563Z,0
2023-03-18T00:12:38.104Z,0
2023-03-18T00:13:19.115Z,0
2023-03-18T00:18:03.769Z,0
2023-03-18T00:18:44.204Z,0
2023-03-18T00:19:24.761Z,0
2023-03-18T00:20:06.116Z,0
2023-03-18T00:20:46.609Z,0
2023-03-18T00:21:27.119Z,0
2023-03-18T00:22:07.621Z,0
2023-03-18T00:22:48.157Z,0
2023-03-18T00:23:28.733Z,0
2023-03-18T00:28:09.558Z,0
2023-03-18T00:28:50.074Z,0
2023-03-18T00:29:31.276Z,0
2023-03-18T00:30:11.822Z,0
2023-03-18T00:30:53.001Z,0
2023-03-18T00:31:33.549Z,0
2023-03-18T00:32:14.055Z,0
2023-03-18T00:32:54.665Z,0
2023-03-18T00:38:17.119Z,0
2023-03-18T00:38:57.917Z,0
2023-03-18T00:39:38.737Z,0
2023-03-18T00:40:20.905Z,0
2023-03-18T00:42:54.531Z,0
2023-03-18T00:43:32.655Z,0
2023-03-18T00:44:14.041Z,0
2023-03-18T00:44:54.577Z,0
2023-03-18T00:47:09.163Z,0
2023-03-18T00:47:49.659Z,0
2023-03-18T00:48:31.818Z,0
2023-03-18T00:49:12.353Z,0
2023-03-18T00:49:52.877Z,0
2023-03-18T00:50:33.565Z,0
2023-03-18T00:51:13.993Z,0
2023-03-18T00:56:34.585Z,0
2023-03-18T00:57:15.254Z,0
2023-03-18T00:57:55.804Z,0
2023-03-18T00:58:36.353Z,0
2023-03-18T00:59:16.913Z,0
2023-03-18T00:59:57.477Z,0
2023-03-18T01:02:10.607Z,0
2023-03-18T01:02:51.138Z,0
2023-03-18T01:03:31.646Z,0
2023-03-18T01:04:14.080Z,0
2023-03-18T01:04:54.675Z,0
2023-03-18T01:05:35.204Z,0
2023-03-18T01:12:20.589Z,0
2023-03-18T01:13:01.148Z,0
2023-03-18T01:13:41.687Z,0
2023-03-18T01:14:22.224Z,0
2023-03-18T01:15:03.304Z,0
2023-03-18T01:15:43.817Z,0
2023-03-18T01:16:24.386Z,0
2023-03-18T01:17:04.865Z,0
2023-03-18T01:17:45.374Z,0
2023-03-18T01:20:54.403Z,0
2023-03-18T01:21:35.014Z,0
2023-03-18T01:22:15.590Z,0
2023-03-18T01:22:56.755Z,0
2023-03-18T01:25:15.401Z,0
2023-03-18T01:25:55.944Z,0
2023-03-18T01:26:36.458Z,0
2023-03-18T01:27:17.574Z,0
2023-03-18T01:29:37.285Z,0
2023-03-18T01:30:17.861Z,0
2023-03-18T01:30:58.360Z,0
2023-03-18T01:31:39.486Z,0
2023-03-18T01:33:53.318Z,0
2023-03-18T01:34:33.813Z,0
2023-03-18T01:35:14.351Z,0
2023-03-18T01:35:54.915Z,0
2023-03-18T01:36:35.421Z,0
2023-03-18T01:37:15.915Z,0
2023-03-18T01:37:56.466Z,0
2023-03-18T01:38:37.070Z,0
2023-03-18T01:39:17.549Z,0
2023-03-18T01:39:58.072Z,0
2023-03-18T01:40:38.615Z,0
2023-03-18T01:41:19.181Z,0
2023-03-18T01:41:59.878Z,0
2023-03-18T01:42:40.422Z,0
2023-03-18T01:43:20.987Z,0
2023-03-18T01:46:17.571Z,0
2023-03-18T01:46:58.111Z,0
2023-03-18T01:47:38.675Z,0
2023-03-18T01:48:19.208Z,0
2023-03-18T01:48:59.751Z,0
2023-03-18T01:49:40.331Z,0
2023-03-18T01:50:20.863Z,0
2023-03-18T01:51:01.376Z,0
2023-03-18T01:51:41.890Z,0
2023-03-18T01:52:22.412Z,0
2023-03-18T01:59:08.967Z,0
2023-03-18T01:59:49.492Z,0
2023-03-18T02:00:30.220Z,0
2023-03-18T02:01:10.599Z,0
2023-03-18T02:01:51.045Z,0
2023-03-18T02:02:31.697Z,0
2023-03-18T02:03:12.251Z,0
2023-03-18T02:03:52.768Z,0
2023-03-18T02:04:33.349Z,0
2023-03-18T02:05:13.865Z,0
2023-03-18T02:05:54.369Z,0
2023-03-18T02:06:34.902Z,0
2023-03-18T02:07:15.438Z,0
2023-03-18T02:07:55.963Z,0
2023-03-18T02:08:36.538Z,0
2023-03-18T02:09:17.075Z,0
2023-03-18T02:09:57.634Z,0
2023-03-18T02:10:38.141Z,0
2023-03-18T02:11:18.689Z,0
2023-03-18T02:13:16.348Z,0
2023-03-18T02:13:56.853Z,0
2023-03-18T02:14:37.349Z,0
2023-03-18T02:15:17.851Z,0
2023-03-18T02:15:58.393Z,0
2023-03-18T02:16:39.040Z,0
2023-03-18T02:17:19.520Z,0
2023-03-18T02:18:00.065Z,0
2023-03-18T02:18:40.622Z,0
2023-03-18T02:19:21.148Z,0
2023-03-18T02:26:06.353Z,0
2023-03-18T02:26:46.890Z,0
2023-03-18T02:27:27.406Z,0
2023-03-18T02:28:07.926Z,0
2023-03-18T02:28:48.475Z,0
2023-03-18T02:29:29.019Z,0
2023-03-18T02:30:09.545Z,0
2023-03-18T02:30:50.063Z,0
2023-03-18T02:31:30.574Z,0
2023-03-18T02:32:11.089Z,0
2023-03-18T02:37:34.130Z,0
2023-03-18T02:38:14.663Z,0
2023-03-18T02:38:55.217Z,0
2023-03-18T02:39:35.818Z,0
2023-03-18T02:41:49.159Z,0
2023-03-18T02:42:30.422Z,0
2023-03-18T02:43:10.962Z,0
2023-03-18T02:43:51.512Z,0
2023-03-18T02:46:06.050Z,0
2023-03-18T02:46:46.649Z,0
2023-03-18T02:47:27.134Z,0
2023-03-18T02:48:08.423Z,0
2023-03-18T02:48:48.987Z,0
2023-03-18T02:51:07.867Z,0
2023-03-18T02:51:48.439Z,0
2023-03-18T02:52:29.030Z,0
2023-03-18T02:53:09.641Z,0
2023-03-18T02:55:27.816Z,0
2023-03-18T02:56:08.373Z,0
2023-03-18T02:56:48.906Z,0
2023-03-18T02:57:29.471Z,0
2023-03-18T02:58:10.021Z,0
2023-03-18T03:00:23.272Z,0
2023-03-18T03:01:04.509Z,0
2023-03-18T03:01:45.014Z,0
2023-03-18T03:02:25.537Z,0
2023-03-18T03:04:38.786Z,0
2023-03-18T03:05:19.295Z,0
2023-03-18T03:06:01.617Z,0
2023-03-18T03:06:43.972Z,0
2023-03-18T03:09:02.670Z,0
2023-03-18T03:09:43.188Z,0
2023-03-18T03:10:24.291Z,0
2023-03-18T03:11:04.800Z,0
2023-03-18T03:11:45.345Z,0
2023-03-18T03:13:58.456Z,0
2023-03-18T03:14:38.992Z,0
2023-03-18T03:15:19.502Z,0
2023-03-18T03:16:00.040Z,0
2023-03-18T03:18:29.782Z,0
2023-03-18T03:19:10.294Z,0
2023-03-18T03:19:50.830Z,0
2023-03-18T03:20:31.628Z,0
2023-03-18T03:21:11.934Z,0
2023-03-18T03:21:52.483Z,0
2023-03-18T03:24:06.118Z,0
2023-03-18T03:24:50.300Z,0
2023-03-18T03:25:31.711Z,0
2023-03-18T03:26:12.246Z,0
2023-03-18T03:28:26.823Z,0
2023-03-18T03:29:07.389Z,0
2023-03-18T03:29:48.868Z,0
2023-03-18T03:30:29.633Z,0
2023-03-18T03:31:09.970Z,0
2023-03-18T03:33:23.096Z,0
2023-03-18T03:34:03.640Z,0
2023-03-18T03:34:44.191Z,0
2023-03-18T03:35:24.731Z,0
2023-03-18T03:36:05.298Z,0
2023-03-18T03:36:45.988Z,0
2023-03-18T03:37:26.595Z,0
2023-03-18T03:38:07.137Z,0
2023-03-18T03:40:20.287Z,0
2023-03-18T03:41:00.814Z,0
2023-03-18T03:41:41.442Z,0
2023-03-18T03:42:22.025Z,0
2023-03-18T03:43:02.587Z,0
2023-03-18T03:43:43.175Z,0
2023-03-18T03:44:23.684Z,0
2023-03-18T03:45:04.224Z,0
2023-03-18T03:45:44.773Z,0
2023-03-18T03:46:25.338Z,0
2023-03-18T03:52:30.431Z,0
2023-03-18T03:53:11.036Z,0
2023-03-18T03:53:51.591Z,0
2023-03-18T03:56:05.323Z,0
2023-03-18T03:56:45.837Z,0
2023-03-18T03:57:26.359Z,0
2023-03-18T03:58:06.886Z,0
2023-03-18T04:00:42.625Z,0
2023-03-18T04:01:23.169Z,0
2023-03-18T04:02:03.719Z,0
2023-03-18T04:02:44.340Z,0
2023-03-18T04:03:24.817Z,0
2023-03-18T04:04:05.467Z,0
2023-03-18T04:04:45.990Z,0
2023-03-18T04:05:26.528Z,0
2023-03-18T04:06:07.029Z,0
2023-03-18T04:06:47.571Z,0
2023-03-18T04:11:32.744Z,0
2023-03-18T04:12:13.280Z,0
2023-03-18T04:12:53.805Z,0
2023-03-18T04:13:34.336Z,0
2023-03-18T04:15:47.455Z,0
2023-03-18T04:16:27.959Z,0
2023-03-18T04:17:08.448Z,0
2023-03-18T04:17:49.001Z,0
2023-03-18T04:18:29.548Z,0
2023-03-18T04:19:10.124Z,0
2023-03-18T04:19:50.649Z,0
2023-03-18T04:22:03.701Z,0
2023-03-18T04:22:44.232Z,0
2023-03-18T04:23:24.778Z,0
2023-03-18T04:24:05.325Z,0
2023-03-18T04:24:45.862Z,0
2023-03-18T04:25:26.407Z,0
2023-03-18T04:26:07.007Z,0
2023-03-18T04:26:47.639Z,0
2023-03-18T04:27:28.182Z,0
2023-03-18T04:28:08.712Z,0
2023-03-18T04:34:09.874Z,0
2023-03-18T04:34:50.403Z,0
2023-03-18T04:35:31.932Z,0
2023-03-18T04:36:12.401Z,0
2023-03-18T04:38:30.283Z,0
2023-03-18T04:39:10.857Z,0
2023-03-18T04:39:51.379Z,0
2023-03-18T04:40:32.041Z,0
2023-03-18T04:41:12.439Z,0
2023-03-18T04:41:53.006Z,0
2023-03-18T04:42:33.547Z,0
2023-03-18T04:43:14.052Z,0
2023-03-18T04:43:54.578Z,0
2023-03-18T04:44:35.100Z,0
2023-03-18T04:50:39.945Z,0
2023-03-18T04:51:20.488Z,0
2023-03-18T04:52:01.051Z,0
2023-03-18T04:52:41.584Z,0
2023-03-18T04:53:22.128Z,0
2023-03-18T04:54:02.648Z,0
2023-03-18T04:54:43.197Z,0
2023-03-18T04:55:23.698Z,0
2023-03-18T04:56:04.249Z,0
2023-03-18T04:56:44.772Z,0
2023-03-18T04:57:25.328Z,0
2023-03-18T05:03:30.204Z,0
2023-03-18T05:04:10.749Z,0
2023-03-18T05:04:51.243Z,0
2023-03-18T05:05:32.044Z,0
2023-03-18T05:06:12.367Z,0
2023-03-18T05:06:52.965Z,0
2023-03-18T05:07:33.566Z,0
2023-03-18T05:09:47.407Z,4
2023-03-18T05:10:27.936Z,4
2023-03-18T05:11:10.268Z,0
2023-03-18T05:11:50.854Z,4
2023-03-18T05:12:31.413Z,4
2023-03-18T05:19:53.959Z,12
2023-03-18T05:20:34.517Z,16
2023-03-18T05:21:15.130Z,16
2023-03-18T05:21:55.685Z,16
2023-03-18T05:22:36.243Z,20
2023-03-18T05:23:16.826Z,20
2023-03-18T05:25:30.632Z,32
2023-03-18T05:26:12.476Z,36
2023-03-18T05:26:53.046Z,40
2023-03-18T05:27:33.587Z,40
2023-03-18T05:29:47.734Z,56
2023-03-18T05:30:28.254Z,64
2023-03-18T05:31:09.627Z,68
2023-03-18T05:31:50.312Z,72
2023-03-18T05:32:30.826Z,80
2023-03-18T05:33:12.233Z,88
2023-03-18T05:33:52.761Z,92
2023-03-18T05:39:57.713Z,184
2023-03-18T05:42:11.193Z,216
2023-03-18T05:42:56.072Z,232
2023-03-18T05:43:32.232Z,240
2023-03-18T05:44:12.786Z,252
2023-03-18T05:44:53.314Z,264
2023-03-18T05:45:34.477Z,276
2023-03-18T05:46:14.452Z,292
2023-03-18T05:46:55.067Z,304
2023-03-18T05:47:35.507Z,320
2023-03-18T05:51:35.976Z,408
2023-03-18T05:52:16.533Z,424
2023-03-18T05:52:58.002Z,440
2023-03-18T05:53:38.536Z,460
2023-03-18T05:54:20.002Z,476
2023-03-18T05:55:00.637Z,492
2023-03-18T06:02:14.202Z,796
2023-03-18T06:02:54.700Z,844
2023-03-18T06:03:35.284Z,892
2023-03-18T06:04:15.779Z,944
2023-03-18T06:06:28.821Z,1120
2023-03-18T06:07:09.380Z,1168
2023-03-18T06:07:49.940Z,1208
2023-03-18T06:08:30.476Z,1248
2023-03-18T06:09:11.246Z,1288
2023-03-18T06:09:51.783Z,1324
2023-03-18T06:10:32.335Z,1360
2023-03-18T06:11:12.879Z,1388
2023-03-18T06:11:53.448Z,1420
2023-03-18T06:14:11.377Z,1496
2023-03-18T06:14:53.345Z,1516
2023-03-18T06:15:34.034Z,1548
2023-03-18T06:16:15.145Z,1588
2023-03-18T06:16:55.633Z,1624
2023-03-18T06:17:36.138Z,1660
2023-03-18T06:23:01.082Z,1832
2023-03-18T06:23:41.610Z,1828
2023-03-18T06:24:22.173Z,1824
2023-03-18T06:26:50.418Z,1872
2023-03-18T06:27:31.810Z,1896
2023-03-18T06:28:12.334Z,1924
2023-03-18T06:28:52.883Z,1948
2023-03-18T06:31:07.485Z,1980
2023-03-18T06:31:48.522Z,1976
2023-03-18T06:32:29.054Z,1988
2023-03-18T06:33:09.670Z,1996
2023-03-18T06:33:50.694Z,2000
2023-03-18T06:34:31.209Z,1988
2023-03-18T06:35:11.793Z,1952
2023-03-18T06:37:29.945Z,1944
2023-03-18T06:38:10.494Z,1976
2023-03-18T06:38:51.044Z,2004
2023-03-18T06:39:31.554Z,2024
2023-03-18T06:40:12.098Z,2032
2023-03-18T06:42:25.540Z,2112
2023-03-18T06:43:06.066Z,2156
2023-03-18T06:43:46.574Z,2192
2023-03-18T06:44:27.123Z,2212
2023-03-18T06:45:07.676Z,2232
2023-03-18T06:45:48.254Z,2256
2023-03-18T06:46:28.850Z,2272
2023-03-18T06:47:09.379Z,2292
2023-03-18T06:47:49.886Z,2312
2023-03-18T06:53:51.353Z,2516
2023-03-18T06:54:31.904Z,2548
2023-03-18T06:55:12.417Z,2572
2023-03-18T06:55:52.952Z,2584
2023-03-18T06:56:33.479Z,2596
2023-03-18T06:57:14.038Z,2608
2023-03-18T06:59:48.045Z,2756
2023-03-18T07:00:30.827Z,2792
2023-03-18T07:01:11.882Z,2828
2023-03-18T07:01:53.160Z,2864
2023-03-18T07:04:05.836Z,3008
2023-03-18T07:04:46.391Z,3056
2023-03-18T07:05:26.923Z,3096
2023-03-18T07:06:07.439Z,3116
2023-03-18T07:06:47.935Z,3144
2023-03-18T07:07:29.193Z,3708
2023-03-18T07:08:09.717Z,4784
2023-03-18T07:08:50.289Z,5972
2023-03-18T07:09:30.822Z,6600
2023-03-18T07:13:35.859Z,6508
2023-03-18T07:14:17.158Z,3452
2023-03-18T07:14:58.202Z,3364
2023-03-18T07:15:38.735Z,3260
2023-03-18T07:16:19.271Z,3280
2023-03-18T07:16:59.883Z,3348
2023-03-18T07:17:40.317Z,3452
2023-03-18T07:18:20.837Z,3752
2023-03-18T07:24:25.585Z,4704
2023-03-18T07:25:06.789Z,6392
2023-03-18T07:25:47.336Z,7588
2023-03-18T07:26:27.936Z,7128
2023-03-18T07:27:08.411Z,5432
2023-03-18T07:27:48.968Z,7208
2023-03-18T07:28:29.502Z,6372
2023-03-18T07:29:10.014Z,6452
2023-03-18T07:29:50.537Z,5668
2023-03-18T07:35:55.808Z,5236
2023-03-18T07:36:36.304Z,4880
2023-03-18T07:37:16.851Z,5060
2023-03-18T07:37:57.329Z,5304
2023-03-18T07:38:37.856Z,5964
2023-03-18T07:39:19.288Z,5768
2023-03-18T07:39:59.854Z,5800
2023-03-18T07:40:40.353Z,5844
2023-03-18T07:41:20.908Z,5768
2023-03-18T07:47:25.651Z,10240
2023-03-18T07:48:06.163Z,10332
2023-03-18T07:48:46.690Z,10368
2023-03-18T07:49:27.228Z,10280
2023-03-18T07:50:07.772Z,9840
2023-03-18T07:50:48.258Z,8800
2023-03-18T07:51:28.795Z,7304
2023-03-18T07:52:09.334Z,5812
2023-03-18T07:55:25.642Z,6200
2023-03-18T07:56:06.248Z,8104
2023-03-18T07:56:46.825Z,10292
2023-03-18T07:57:27.334Z,11984
2023-03-18T07:58:07.854Z,12864
2023-03-18T07:58:48.418Z,13200
2023-03-18T07:59:28.945Z,13376
2023-03-18T08:00:09.493Z,13540
2023-03-18T08:00:50.064Z,13652
2023-03-18T08:01:30.595Z,13844
2023-03-18T08:03:48.839Z,13204
2023-03-18T08:04:29.365Z,12540
2023-03-18T08:05:10.807Z,12080
2023-03-18T08:05:51.273Z,11980
2023-03-18T08:06:31.955Z,12072
2023-03-18T08:07:12.476Z,11824
2023-03-18T08:07:52.996Z,12012
2023-03-18T08:09:50.647Z,12616
2023-03-18T08:10:31.177Z,12284
2023-03-18T08:11:11.690Z,9280
2023-03-18T08:11:52.189Z,12164
2023-03-18T08:14:11.191Z,13664
2023-03-18T08:14:53.300Z,13864
2023-03-18T08:15:34.310Z,14048
2023-03-18T08:16:14.346Z,14380
2023-03-18T08:18:27.494Z,15320
2023-03-18T08:19:08.149Z,15268
2023-03-18T08:19:48.716Z,14940
2023-03-18T08:20:29.287Z,14808
2023-03-18T08:21:09.785Z,15240
2023-03-18T08:21:50.346Z,16672
2023-03-18T08:23:48.003Z,18176
2023-03-18T08:24:28.546Z,18400
2023-03-18T08:25:09.080Z,18240
2023-03-18T08:25:49.631Z,17888
2023-03-18T08:26:30.168Z,17824
2023-03-18T08:27:10.684Z,19104
2023-03-18T08:27:51.196Z,19136
2023-03-18T08:28:31.747Z,17984
2023-03-18T08:29:12.324Z,18432
2023-03-18T08:29:52.876Z,19264
2023-03-18T08:34:32.732Z,17984
2023-03-18T08:35:13.253Z,19008
2023-03-18T08:35:53.764Z,19296
2023-03-18T08:36:34.349Z,19008
2023-03-18T08:37:15.490Z,19296
2023-03-18T08:37:56.023Z,19136
2023-03-18T08:38:36.545Z,19040
2023-03-18T08:39:17.166Z,19136
2023-03-18T08:39:57.684Z,19264
2023-03-18T08:46:39.990Z,14136
2023-03-18T08:47:20.532Z,11672
2023-03-18T08:48:01.070Z,7728
2023-03-18T08:48:41.634Z,7356
2023-03-18T08:49:22.171Z,7640
2023-03-18T08:51:35.735Z,9312
2023-03-18T08:52:16.917Z,9476
2023-03-18T08:52:58.912Z,9692
2023-03-18T08:53:40.119Z,10164
2023-03-18T08:55:44.932Z,15356
2023-03-18T08:56:25.422Z,14024
2023-03-18T08:57:06.123Z,16360
2023-03-18T08:57:46.614Z,17184
2023-03-18T08:58:27.199Z,13464
2023-03-18T08:59:08.283Z,13592
2023-03-18T08:59:48.779Z,14188
2023-03-18T09:00:29.335Z,17344
2023-03-18T09:01:11.876Z,20704
2023-03-18T09:07:15.106Z,25152
2023-03-18T09:07:55.390Z,23968
2023-03-18T09:08:36.442Z,22624
2023-03-18T09:09:16.989Z,21472
2023-03-18T09:09:57.531Z,20736
2023-03-18T09:10:38.857Z,20128
2023-03-18T09:11:19.450Z,19712
2023-03-18T09:12:00.009Z,19392
2023-03-18T09:16:14.520Z,17376
2023-03-18T09:16:54.938Z,16960
2023-03-18T09:17:51.263Z,16800
2023-03-18T09:18:15.959Z,16416
2023-03-18T09:18:56.475Z,16148
2023-03-18T09:19:37.004Z,16116
2023-03-18T09:20:17.601Z,16128
2023-03-18T09:20:58.097Z,15960
2023-03-18T09:21:38.627Z,15824
2023-03-18T09:22:19.201Z,15792
2023-03-18T09:27:44.079Z,16624
2023-03-18T09:28:24.600Z,17440
2023-03-18T09:29:05.108Z,18336
2023-03-18T09:29:45.647Z,17184
2023-03-18T09:30:26.295Z,18400
2023-03-18T09:31:06.760Z,18464
2023-03-18T09:31:47.180Z,19424
2023-03-18T09:32:27.732Z,18656
2023-03-18T09:33:08.283Z,18912
2023-03-18T09:33:48.759Z,19744
2023-03-18T09:34:29.327Z,21152
2023-03-18T09:40:36.230Z,32512
2023-03-18T09:41:14.805Z,32544
2023-03-18T09:43:28.653Z,33376
2023-03-18T09:44:09.166Z,33984
2023-03-18T09:44:49.713Z,30592
2023-03-18T09:45:30.675Z,28640
2023-03-18T09:47:43.736Z,21888
2023-03-18T09:48:24.285Z,27968
2023-03-18T09:49:04.897Z,25856
2023-03-18T09:49:45.399Z,15440
2023-03-18T09:50:25.983Z,17664
2023-03-18T09:51:06.563Z,18144
2023-03-18T09:51:47.076Z,19520
2023-03-18T09:52:27.588Z,24192
2023-03-18T09:53:08.140Z,25888
2023-03-18T09:53:48.668Z,25760
2023-03-18T09:57:53.676Z,15240
2023-03-18T09:58:35.116Z,15468
2023-03-18T09:59:15.662Z,13988
2023-03-18T09:59:56.413Z,15400
2023-03-18T10:00:36.992Z,14868
2023-03-18T10:01:17.548Z,17792
2023-03-18T10:01:58.103Z,17216
2023-03-18T10:02:38.613Z,18016
2023-03-18T10:07:23.795Z,36928
2023-03-18T10:08:05.069Z,35424
2023-03-18T10:08:45.640Z,36896
2023-03-18T10:09:27.696Z,36320
2023-03-18T10:10:08.249Z,34016
2023-03-18T10:15:20.880Z,32352
2023-03-18T10:16:01.462Z,16560
2023-03-18T10:16:42.801Z,13180
2023-03-18T10:17:23.354Z,15804
2023-03-18T10:18:03.906Z,26912
2023-03-18T10:20:16.706Z,17632
2023-03-18T10:20:57.255Z,25984
2023-03-18T10:21:37.819Z,25408
2023-03-18T10:22:18.369Z,35808
2023-03-18T10:22:58.918Z,39136
2023-03-18T10:23:39.471Z,27296
2023-03-18T10:25:52.577Z,47072
2023-03-18T10:26:33.655Z,28608
2023-03-18T10:27:14.300Z,24832
2023-03-18T10:27:54.781Z,40512
2023-03-18T10:28:35.327Z,43104
2023-03-18T10:29:16.024Z,50880
2023-03-18T10:29:56.576Z,51424
2023-03-18T10:30:37.591Z,52128
2023-03-18T10:36:42.741Z,49728
2023-03-18T10:39:30.306Z,49376
2023-03-18T10:40:10.830Z,49632
2023-03-18T10:40:51.359Z,50272
2023-03-18T10:41:32.433Z,49504
2023-03-18T10:43:46.988Z,50880
2023-03-18T10:44:27.618Z,51104
2023-03-18T10:45:08.145Z,49728
2023-03-18T10:45:48.669Z,37344
2023-03-18T10:46:29.332Z,24992
2023-03-18T10:47:09.894Z,42048
2023-03-18T10:47:50.296Z,43840
2023-03-18T10:48:30.897Z,40640
2023-03-18T10:49:11.397Z,43328
2023-03-18T10:51:24.542Z,48480
2023-03-18T10:52:05.082Z,48576
2023-03-18T10:52:45.688Z,48640
2023-03-18T10:53:26.189Z,48512
2023-03-18T10:54:06.738Z,48480
2023-03-18T10:54:48.142Z,46976
2023-03-18T10:55:28.660Z,42656
2023-03-18T10:56:09.225Z,33696
2023-03-18T10:58:10.118Z,25280
2023-03-18T10:58:50.652Z,22976
2023-03-18T10:59:31.214Z,13368
2023-03-18T11:00:12.264Z,11124
2023-03-18T11:02:29.345Z,15620
2023-03-18T11:03:09.883Z,12220
2023-03-18T11:03:50.425Z,12308
2023-03-18T11:04:30.911Z,12580
2023-03-18T11:06:49.171Z,48064
2023-03-18T11:07:29.710Z,47712
2023-03-18T11:08:10.272Z,46752
2023-03-18T11:08:50.804Z,45952
2023-03-18T11:09:31.385Z,45184
2023-03-18T11:11:49.579Z,43840
2023-03-18T11:12:30.229Z,43232
2023-03-18T11:13:10.707Z,42752
2023-03-18T11:13:51.294Z,42816
2023-03-18T11:16:09.220Z,42144
2023-03-18T11:16:49.746Z,42944
2023-03-18T11:17:30.349Z,42816
2023-03-18T11:18:10.903Z,42752
2023-03-18T11:18:51.424Z,42816
2023-03-18T11:19:31.955Z,42784
2023-03-18T11:21:44.741Z,42496
2023-03-18T11:22:25.257Z,41952
2023-03-18T11:23:06.392Z,38720
2023-03-18T11:25:37.714Z,43616
2023-03-18T11:26:18.221Z,43712
2023-03-18T11:26:59.603Z,43936
2023-03-18T11:27:40.160Z,44160
2023-03-18T11:28:20.687Z,44000
2023-03-18T11:30:34.800Z,43136
2023-03-18T11:31:14.108Z,42848
2023-03-18T11:31:54.608Z,42848
2023-03-18T11:32:35.293Z,36992
2023-03-18T11:33:15.784Z,37344
2023-03-18T11:33:56.270Z,43296
2023-03-18T11:36:29.743Z,43136
2023-03-18T11:37:12.436Z,43392
2023-03-18T11:37:53.969Z,40800
2023-03-18T11:38:34.522Z,44608
2023-03-18T11:40:48.741Z,47776
2023-03-18T11:41:29.268Z,47040
2023-03-18T11:42:10.749Z,37792
2023-03-18T11:42:51.271Z,48128
2023-03-18T11:45:20.464Z,46112
2023-03-18T11:46:01.865Z,46464
2023-03-18T11:46:42.445Z,45888
2023-03-18T11:47:23.660Z,40224
2023-03-18T11:49:22.249Z,30752
2023-03-18T11:50:02.881Z,48224
2023-03-18T11:50:43.345Z,39680
2023-03-18T11:51:26.637Z,46368
2023-03-18T11:53:37.997Z,29536
2023-03-18T11:54:18.541Z,16380
2023-03-18T11:55:01.583Z,21728
2023-03-18T11:55:41.474Z,14444
2023-03-18T11:58:01.368Z,27008
2023-03-18T11:58:41.881Z,14492
2023-03-18T11:59:22.980Z,21472
2023-03-18T12:00:07.166Z,18528
2023-03-18T12:02:23.682Z,35200
2023-03-18T12:03:05.640Z,33696
2023-03-18T12:03:46.716Z,36928
2023-03-18T12:04:28.891Z,22336
2023-03-18T12:05:10.249Z,13596
2023-03-18T12:05:51.385Z,11864
2023-03-18T12:08:24.010Z,38784
2023-03-18T12:09:04.562Z,38688
2023-03-18T12:09:45.123Z,34976
2023-03-18T12:10:25.685Z,16088
2023-03-18T12:12:38.733Z,34688
2023-03-18T12:13:19.284Z,43072
2023-03-18T12:13:59.835Z,41248
2023-03-18T12:14:41.156Z,41312
2023-03-18T12:16:54.638Z,32096
2023-03-18T12:17:35.155Z,33344
2023-03-18T12:18:15.681Z,32832
2023-03-18T12:18:56.199Z,20032
2023-03-18T12:19:36.738Z,19072
2023-03-18T12:20:17.259Z,19392
2023-03-18T12:22:30.360Z,19776
2023-03-18T12:23:10.880Z,17408
2023-03-18T12:23:51.495Z,18240
2023-03-18T12:24:31.966Z,16180
2023-03-18T12:25:12.501Z,16824
2023-03-18T12:25:53.127Z,16516
2023-03-18T12:26:33.606Z,15556
2023-03-18T12:27:14.109Z,16276
2023-03-18T12:27:54.688Z,19328
2023-03-18T12:28:35.276Z,21344
2023-03-18T12:31:49.536Z,24704
2023-03-18T12:32:29.992Z,28032
2023-03-18T12:33:10.608Z,23296
2023-03-18T12:33:51.101Z,23808
2023-03-18T12:35:49.302Z,21120
2023-03-18T12:36:29.801Z,19072
2023-03-18T12:37:10.360Z,17216
2023-03-18T12:37:50.911Z,17152
2023-03-18T12:40:09.128Z,15056
2023-03-18T12:40:49.687Z,16144
2023-03-18T12:41:31.050Z,16500
2023-03-18T12:42:11.560Z,23840
2023-03-18T12:44:29.436Z,20832
2023-03-18T12:45:10.029Z,18176
2023-03-18T12:45:50.649Z,27456
2023-03-18T12:46:31.157Z,31872
2023-03-18T12:48:42.996Z,27264
2023-03-18T12:49:11.308Z,28832
2023-03-18T12:49:51.907Z,37440
2023-03-18T12:50:32.344Z,37536
2023-03-18T12:52:50.230Z,23456
2023-03-18T12:53:30.790Z,23648
2023-03-18T12:54:11.344Z,15844
2023-03-18T12:54:51.879Z,28992
2023-03-18T12:55:32.972Z,25600
2023-03-18T12:56:13.302Z,27072
2023-03-18T12:56:53.837Z,24192
2023-03-18T12:57:34.369Z,24672
2023-03-18T12:58:14.863Z,27744
2023-03-18T13:06:17.461Z,29760
2023-03-18T13:06:58.012Z,26592
2023-03-18T13:07:38.556Z,15592
2023-03-18T13:08:19.104Z,16980
2023-03-18T13:08:59.645Z,17824
2023-03-18T13:09:40.189Z,16608
2023-03-18T13:10:21.357Z,18496
2023-03-18T13:11:01.963Z,16036
2023-03-18T13:11:42.513Z,17664
2023-03-18T13:16:38.766Z,26592
2023-03-18T13:17:20.117Z,30336
2023-03-18T13:18:00.731Z,34016
2023-03-18T13:18:42.005Z,32800
2023-03-18T13:20:55.788Z,33728
2023-03-18T13:21:37.420Z,33440
2023-03-18T13:22:16.973Z,31584
2023-03-18T13:22:57.531Z,29696
2023-03-18T13:23:38.092Z,26368
2023-03-18T13:24:18.697Z,31008
2023-03-18T13:24:59.242Z,31168
2023-03-18T13:25:39.834Z,28064
2023-03-18T13:31:56.337Z,26720
2023-03-18T13:32:37.428Z,27808
2023-03-18T13:33:17.938Z,27360
2023-03-18T13:33:59.404Z,27776
2023-03-18T13:36:13.735Z,26368
2023-03-18T13:36:54.952Z,24288
2023-03-18T13:37:36.504Z,20832
2023-03-18T13:38:17.045Z,20192
2023-03-18T13:40:50.218Z,21600
2023-03-18T13:41:30.759Z,15928
2023-03-18T13:42:11.310Z,11236
2023-03-18T13:42:51.873Z,14416
2023-03-18T13:43:32.437Z,15996
2023-03-18T13:44:13.020Z,20000
2023-03-18T13:44:53.544Z,22048
2023-03-18T13:45:34.419Z,22784
2023-03-18T13:46:14.663Z,23424
2023-03-18T13:46:55.276Z,24224
2023-03-18T13:52:21.119Z,20640
2023-03-18T13:54:35.592Z,19360
2023-03-18T13:55:16.141Z,18400
2023-03-18T13:56:00.211Z,17984
2023-03-18T13:56:41.386Z,17760
2023-03-18T13:59:16.514Z,16560
2023-03-18T13:59:57.038Z,17632
2023-03-18T14:00:37.568Z,16696
2023-03-18T14:01:18.103Z,16828
2023-03-18T14:03:36.536Z,15980
2023-03-18T14:04:17.073Z,15356
2023-03-18T14:04:57.572Z,15752
2023-03-18T14:05:38.925Z,15768
2023-03-18T14:07:53.000Z,13956
2023-03-18T14:08:34.147Z,14844
2023-03-18T14:09:16.575Z,15712
2023-03-18T14:10:11.881Z,16068
2023-03-18T14:11:58.064Z,17440
2023-03-18T14:12:39.201Z,17056
2023-03-18T14:13:19.742Z,16168
2023-03-18T14:14:00.957Z,15332
2023-03-18T14:16:13.781Z,14300
2023-03-18T14:16:54.350Z,15284
2023-03-18T14:17:37.312Z,14384
2023-03-18T14:18:17.861Z,13132
2023-03-18T14:20:53.359Z,13384
2023-03-18T14:21:33.882Z,13940
2023-03-18T14:22:14.397Z,13412
2023-03-18T14:22:55.714Z,13220
2023-03-18T14:25:09.256Z,12420
2023-03-18T14:25:49.817Z,11088
2023-03-18T14:26:30.351Z,10684
2023-03-18T14:27:10.863Z,10728
2023-03-18T14:29:29.949Z,11168
2023-03-18T14:30:10.506Z,9360
2023-03-18T14:30:51.051Z,9308
2023-03-18T14:31:31.714Z,9192
2023-03-18T14:32:13.209Z,8920
2023-03-18T14:32:53.747Z,9716
2023-03-18T14:35:53.717Z,14772
2023-03-18T14:36:34.204Z,15896
2023-03-18T14:37:14.802Z,15596
2023-03-18T14:37:55.324Z,14404
2023-03-18T14:38:35.903Z,11364
2023-03-18T14:39:16.482Z,12256
2023-03-18T14:39:57.007Z,14024
2023-03-18T14:40:37.557Z,13736
2023-03-18T14:41:18.088Z,14940
2023-03-18T14:43:30.992Z,15196
2023-03-18T14:44:11.548Z,13636
2023-03-18T14:44:52.098Z,12972
2023-03-18T14:45:32.926Z,12432
2023-03-18T14:46:13.257Z,11304
2023-03-18T14:48:26.005Z,13500
2023-03-18T14:49:06.701Z,13164
2023-03-18T14:49:47.292Z,13980
2023-03-18T14:50:27.779Z,14000
2023-03-18T14:51:08.347Z,13916
2023-03-18T14:51:49.723Z,12492
2023-03-18T14:52:30.305Z,12160
2023-03-18T14:53:10.805Z,10180
2023-03-18T14:55:49.437Z,9188
2023-03-18T14:56:33.807Z,8492
2023-03-18T14:57:18.594Z,7540
2023-03-18T14:59:53.869Z,6012
2023-03-18T15:00:34.572Z,6688